Time;durP1;ratioP1;P1;durP2;ratioP2;P2;SDS_P1;SDS_P2;PMS_P1;PMS_P2;Temp;Humidity;BMP_temperature;BMP_pressure;BME280_temperature;BME280_humidity;BME280_pressure;Samples;Min_cycle;Max_cycle;Signal;HPM_P1;HPM_P2
2022/09/16 00:00:40;;;;;;;1.38;1.20;;;;;;;;;;5039117;28;24513;-47
2022/09/16 00:03:05;;;;;;;2.00;1.20;;;;;;;;;;5031309;28;24973;-48
2022/09/16 00:05:30;;;;;;;2.22;1.20;;;;;;;;;;5035489;28;24432;-49
2022/09/16 00:07:55;;;;;;;1.40;1.30;;;;;;;;;;5033595;28;24810;-48
2022/09/16 00:10:21;;;;;;;1.90;1.30;;;;;;;;;;5038221;28;24854;-46
2022/09/16 00:12:47;;;;;;;1.52;1.23;;;;;;;;;;5031587;28;25437;-48
2022/09/16 00:15:12;;;;;;;2.13;1.20;;;;;;;;;;5035336;28;24445;-48
2022/09/16 00:17:37;;;;;;;2.87;1.20;;;;;;;;;;5038142;28;24415;-47
2022/09/16 00:20:03;;;;;;;1.20;1.10;;;;;;;;;;5039131;28;24427;-47
2022/09/16 00:22:28;;;;;;;2.40;1.50;;;;;;;;;;5040970;28;24430;-48
2022/09/16 00:24:53;;;;;;;1.30;1.20;;;;;;;;;;5042355;28;24841;-48
2022/09/16 00:27:18;;;;;;;1.40;1.20;;;;;;;;;;5031035;28;24434;-46
2022/09/16 00:29:44;;;;;;;1.83;1.40;;;;;;;;;;5040944;28;24535;-46
2022/09/16 00:32:09;;;;;;;1.80;1.30;;;;;;;;;;5037925;28;24957;-46
2022/09/16 00:34:34;;;;;;;1.88;1.50;;;;;;;;;;5032010;28;25008;-48
2022/09/16 00:37:02;;;;;;;1.60;1.50;;;;;;;;;;5041374;28;24444;-47
2022/09/16 00:39:27;;;;;;;1.40;1.30;;;;;;;;;;5042924;28;25169;-47
2022/09/16 00:41:52;;;;;;;2.03;1.80;;;;;;;;;;5041606;28;24446;-47
2022/09/16 00:44:36;;;;;;;1.50;1.40;;;;;;;;;;5034772;28;24511;-47
2022/09/16 00:47:01;;;;;;;2.15;1.80;;;;;;;;;;5041494;28;25205;-47
2022/09/16 00:49:29;;;;;;;2.10;1.67;;;;;;;;;;5034078;28;24612;-48
2022/09/16 00:51:58;;;;;;;1.50;1.40;;;;;;;;;;5036583;28;24442;-48
2022/09/16 00:54:24;;;;;;;1.45;1.30;;;;;;;;;;5035241;28;24562;-47
2022/09/16 00:56:51;;;;;;;1.80;1.70;;;;;;;;;;5044553;28;24569;-49
2022/09/16 00:59:20;;;;;;;1.60;1.40;;;;;;;;;;5042747;28;24430;-49
2022/09/16 01:01:45;;;;;;;1.85;1.40;;;;;;;;;;5036254;28;24969;-49
2022/09/16 01:04:16;;;;;;;3.47;1.70;;;;;;;;;;5037462;28;24434;-49
2022/09/16 01:06:42;;;;;;;1.40;1.25;;;;;;;;;;5036096;28;24436;-50
2022/09/16 01:09:07;;;;;;;2.33;1.40;;;;;;;;;;5039088;28;24438;-49
2022/09/16 01:11:32;;;;;;;1.90;1.58;;;;;;;;;;5029360;28;24427;-48
2022/09/16 01:14:51;;;;;;;1.55;1.40;;;;;;;;;;5040496;28;24430;-48
2022/09/16 01:16:45;;;;;;;1.80;1.70;;;;;;;;;;5032490;28;24908;-48
2022/09/16 01:19:22;;;;;;;1.60;1.50;;;;;;;;;;5041637;28;24991;-48
2022/09/16 01:22:06;;;;;;;1.35;1.25;;;;;;;;;;5042345;28;24431;-47
2022/09/16 01:24:50;;;;;;;1.80;1.30;;;;;;;;;;5031800;28;24522;-48
2022/09/16 01:27:16;;;;;;;1.40;1.30;;;;;;;;;;5033859;28;24930;-47
2022/09/16 01:29:56;;;;;;;1.70;1.20;;;;;;;;;;5046455;28;24455;-48
2022/09/16 01:32:30;;;;;;;2.10;1.60;;;;;;;;;;5043936;28;24438;-47
2022/09/16 01:35:01;;;;;;;2.50;1.50;;;;;;;;;;5038744;28;24471;-47
2022/09/16 01:37:32;;;;;;;1.92;1.45;;;;;;;;;;5040684;28;25172;-48
2022/09/16 01:40:11;;;;;;;1.50;1.40;;;;;;;;;;5040097;28;24988;-47
2022/09/16 01:42:42;;;;;;;1.30;1.20;;;;;;;;;;5047091;28;24434;-49
2022/09/16 01:45:10;;;;;;;2.03;1.42;;;;;;;;;;5042277;28;24423;-48
2022/09/16 01:47:41;;;;;;;2.30;1.65;;;;;;;;;;5039664;28;24427;-48
2022/09/16 01:50:08;;;;;;;2.97;1.58;;;;;;;;;;5047719;28;24546;-48
2022/09/16 01:52:36;;;;;;;1.50;1.40;;;;;;;;;;5044067;28;24480;-47
2022/09/16 01:55:04;;;;;;;1.20;1.10;;;;;;;;;;5037240;28;25056;-48
2022/09/16 01:57:35;;;;;;;1.40;1.30;;;;;;;;;;5041848;28;24481;-47
2022/09/16 02:00:10;;;;;;;2.65;1.50;;;;;;;;;;5038796;28;24534;-48
2022/09/16 02:02:41;;;;;;;2.58;1.30;;;;;;;;;;5040389;28;25107;-48
2022/09/16 02:05:10;;;;;;;1.48;1.33;;;;;;;;;;5042120;28;24438;-48
2022/09/16 02:07:37;;;;;;;2.17;1.40;;;;;;;;;;5041750;28;24968;-48
2022/09/16 02:10:07;;;;;;;1.73;1.37;;;;;;;;;;5040131;28;24462;-48
2022/09/16 02:12:33;;;;;;;1.50;1.40;;;;;;;;;;5036204;28;24429;-47
2022/09/16 02:15:02;;;;;;;1.63;1.20;;;;;;;;;;5033135;28;24681;-48
2022/09/16 02:17:28;;;;;;;2.40;1.30;;;;;;;;;;5037629;28;24434;-47
2022/09/16 02:19:56;;;;;;;1.30;1.20;;;;;;;;;;5039905;28;24554;-48
2022/09/16 02:22:24;;;;;;;1.75;1.13;;;;;;;;;;5040827;28;24419;-47
2022/09/16 02:24:50;;;;;;;1.40;1.20;;;;;;;;;;5044156;28;24985;-47
2022/09/16 02:27:17;;;;;;;2.40;1.10;;;;;;;;;;5037704;28;24443;-47
2022/09/16 02:29:45;;;;;;;1.60;1.20;;;;;;;;;;5038318;28;24419;-46
2022/09/16 02:32:11;;;;;;;1.70;1.20;;;;;;;;;;5041393;28;24995;-47
2022/09/16 02:34:38;;;;;;;1.10;0.97;;;;;;;;;;5041171;28;24439;-47
2022/09/16 02:37:07;;;;;;;2.15;1.40;;;;;;;;;;5036393;28;24822;-47
2022/09/16 02:39:35;;;;;;;1.65;1.08;;;;;;;;;;5039269;28;24993;-47
2022/09/16 02:42:00;;;;;;;1.40;1.30;;;;;;;;;;5039980;28;24435;-47
2022/09/16 02:44:26;;;;;;;1.50;1.10;;;;;;;;;;5038327;28;25021;-47
2022/09/16 02:47:00;;;;;;;1.30;1.20;;;;;;;;;;5036724;28;24497;-46
2022/09/16 02:49:25;;;;;;;3.08;1.60;;;;;;;;;;5038364;28;24785;-48
2022/09/16 02:51:50;;;;;;;1.52;1.42;;;;;;;;;;5035992;28;24705;-48
2022/09/16 02:54:21;;;;;;;2.50;1.30;;;;;;;;;;5038624;28;24822;-47
2022/09/16 02:56:46;;;;;;;1.80;1.47;;;;;;;;;;5042576;28;24871;-47
2022/09/16 02:59:12;;;;;;;1.80;1.70;;;;;;;;;;5045201;28;25282;-46
2022/09/16 03:01:41;;;;;;;1.40;1.30;;;;;;;;;;5033527;28;24837;-47
2022/09/16 03:04:07;;;;;;;3.17;1.70;;;;;;;;;;5038791;28;24988;-47
2022/09/16 03:06:35;;;;;;;1.63;1.52;;;;;;;;;;5035408;28;24450;-47
2022/09/16 03:09:00;;;;;;;3.80;1.80;;;;;;;;;;5038914;28;24754;-47
2022/09/16 03:11:40;;;;;;;1.90;1.60;;;;;;;;;;5035382;28;25474;-47
2022/09/16 03:14:16;;;;;;;1.88;1.40;;;;;;;;;;5037490;28;24831;-48
2022/09/16 03:16:58;;;;;;;2.00;1.58;;;;;;;;;;5041312;28;24434;-48
2022/09/16 03:19:30;;;;;;;2.30;1.88;;;;;;;;;;5039275;28;24455;-48
2022/09/16 03:22:13;;;;;;;1.60;1.50;;;;;;;;;;5028642;28;24427;-47
2022/09/16 03:24:54;;;;;;;1.70;1.50;;;;;;;;;;5040227;28;24518;-47
2022/09/16 03:27:25;;;;;;;2.47;1.63;;;;;;;;;;5034220;28;24991;-47
2022/09/16 03:29:54;;;;;;;3.90;2.00;;;;;;;;;;5042663;28;24423;-47
2022/09/16 03:32:22;;;;;;;1.60;1.50;;;;;;;;;;5045143;28;24424;-46
2022/09/16 03:34:53;;;;;;;2.20;2.00;;;;;;;;;;5046298;28;24430;-46
2022/09/16 03:37:20;;;;;;;1.52;1.42;;;;;;;;;;5031497;28;24439;-47
2022/09/16 03:39:53;;;;;;;2.00;1.60;;;;;;;;;;5043509;28;24431;-46
2022/09/16 03:42:19;;;;;;;2.20;1.70;;;;;;;;;;5040079;28;24435;-48
2022/09/16 03:44:44;;;;;;;3.33;2.13;;;;;;;;;;5042790;28;24438;-46
2022/09/16 03:47:09;;;;;;;4.50;1.87;;;;;;;;;;5044462;28;24434;-46
2022/09/16 03:49:35;;;;;;;1.52;1.42;;;;;;;;;;5043491;28;24537;-48
2022/09/16 03:52:00;;;;;;;1.80;1.70;;;;;;;;;;5038752;28;24528;-48
2022/09/16 03:54:26;;;;;;;1.73;1.63;;;;;;;;;;5045641;28;24415;-48
2022/09/16 03:56:51;;;;;;;1.90;1.63;;;;;;;;;;5044157;28;24450;-48
2022/09/16 03:59:16;;;;;;;2.55;1.80;;;;;;;;;;5042501;28;24510;-48
2022/09/16 04:01:41;;;;;;;2.30;2.10;;;;;;;;;;5033574;28;24449;-47
2022/09/16 04:04:07;;;;;;;3.50;2.10;;;;;;;;;;5045540;28;24481;-48
2022/09/16 04:06:32;;;;;;;1.70;1.50;;;;;;;;;;5050298;28;24521;-49
2022/09/16 04:08:59;;;;;;;2.88;2.00;;;;;;;;;;5052543;28;24403;-48
2022/09/16 04:11:24;;;;;;;2.13;1.77;;;;;;;;;;5034659;28;24488;-48
2022/09/16 04:13:49;;;;;;;2.45;1.80;;;;;;;;;;5034270;28;25008;-48
2022/09/16 04:16:20;;;;;;;1.75;1.65;;;;;;;;;;5040250;28;24431;-48
2022/09/16 04:18:45;;;;;;;1.90;1.80;;;;;;;;;;5042852;28;24542;-48
2022/09/16 04:21:10;;;;;;;2.13;1.70;;;;;;;;;;5038360;28;24451;-47
2022/09/16 04:23:35;;;;;;;2.30;2.00;;;;;;;;;;5039658;28;24987;-47
2022/09/16 04:26:01;;;;;;;1.88;1.60;;;;;;;;;;5039523;28;24511;-47
2022/09/16 04:28:29;;;;;;;3.13;1.87;;;;;;;;;;5041915;28;24423;-47
2022/09/16 04:30:58;;;;;;;2.00;1.90;;;;;;;;;;5042333;28;25031;-47
2022/09/16 04:33:26;;;;;;;1.92;1.77;;;;;;;;;;5042151;28;24491;-47
2022/09/16 04:35:51;;;;;;;2.20;2.00;;;;;;;;;;5026645;28;24443;-47
2022/09/16 04:38:16;;;;;;;1.80;1.70;;;;;;;;;;5021711;28;24504;-48
2022/09/16 04:40:41;;;;;;;2.40;2.20;;;;;;;;;;5035074;28;24957;-46
2022/09/16 04:43:06;;;;;;;2.45;2.20;;;;;;;;;;5043439;28;24801;-46
2022/09/16 04:45:31;;;;;;;2.40;2.20;;;;;;;;;;5029523;28;24439;-47
2022/09/16 04:47:57;;;;;;;2.50;2.30;;;;;;;;;;5023471;28;24511;-46
2022/09/16 04:50:23;;;;;;;4.25;2.22;;;;;;;;;;5035293;28;24528;-47
2022/09/16 04:52:50;;;;;;;2.40;2.20;;;;;;;;;;5028927;28;24494;-45
2022/09/16 04:55:15;;;;;;;2.10;1.80;;;;;;;;;;5024058;28;24571;-47
2022/09/16 04:57:41;;;;;;;3.50;2.50;;;;;;;;;;5026842;28;24580;-48
2022/09/16 05:00:06;;;;;;;2.10;2.00;;;;;;;;;;5025895;28;24459;-48
2022/09/16 05:02:32;;;;;;;2.47;2.27;;;;;;;;;;5042929;28;24464;-48
2022/09/16 05:04:57;;;;;;;2.38;2.17;;;;;;;;;;5048528;28;24426;-49
2022/09/16 05:07:22;;;;;;;2.42;2.10;;;;;;;;;;5037095;28;24435;-48
2022/09/16 05:09:47;;;;;;;3.03;2.50;;;;;;;;;;5032492;28;24474;-47
2022/09/16 05:12:12;;;;;;;2.70;2.30;;;;;;;;;;5026355;28;24455;-47
2022/09/16 05:14:38;;;;;;;3.03;2.72;;;;;;;;;;5029758;28;24423;-48
2022/09/16 05:17:03;;;;;;;2.50;2.30;;;;;;;;;;5042407;28;25036;-47
2022/09/16 05:19:28;;;;;;;2.10;2.00;;;;;;;;;;5046167;28;24481;-47
2022/09/16 05:21:53;;;;;;;2.47;2.30;;;;;;;;;;5046846;28;24555;-48
2022/09/16 05:24:18;;;;;;;2.95;2.55;;;;;;;;;;5044763;28;25126;-47
2022/09/16 05:26:43;;;;;;;2.38;2.17;;;;;;;;;;5049444;28;24518;-48
2022/09/16 05:29:13;;;;;;;2.80;2.20;;;;;;;;;;5042278;28;24768;-48
2022/09/16 05:31:39;;;;;;;3.00;2.10;;;;;;;;;;5039435;28;24434;-47
2022/09/16 05:34:12;;;;;;;2.40;2.20;;;;;;;;;;5040974;28;24459;-47
2022/09/16 05:36:38;;;;;;;2.40;2.20;;;;;;;;;;5038516;28;24447;-47
2022/09/16 05:39:03;;;;;;;2.47;1.70;;;;;;;;;;5044071;28;24704;-48
2022/09/16 05:41:28;;;;;;;3.13;1.80;;;;;;;;;;5036168;28;24423;-47
2022/09/16 05:43:56;;;;;;;3.30;1.92;;;;;;;;;;5034294;28;24542;-47
2022/09/16 05:46:22;;;;;;;2.42;1.90;;;;;;;;;;5046512;28;24442;-48
2022/09/16 05:48:48;;;;;;;2.95;1.60;;;;;;;;;;5037576;28;24427;-48
2022/09/16 05:51:14;;;;;;;2.07;1.70;;;;;;;;;;5031894;28;24427;-50
2022/09/16 05:53:40;;;;;;;2.38;1.60;;;;;;;;;;5035413;28;24431;-47
2022/09/16 05:56:09;;;;;;;1.93;1.63;;;;;;;;;;5049397;28;24403;-47
2022/09/16 05:58:35;;;;;;;2.10;1.50;;;;;;;;;;5046031;28;24423;-47
2022/09/16 06:01:01;;;;;;;3.72;1.80;;;;;;;;;;5049293;28;24529;-46
2022/09/16 06:03:26;;;;;;;1.87;1.70;;;;;;;;;;5043000;28;24995;-47
2022/09/16 06:05:57;;;;;;;1.90;1.70;;;;;;;;;;5049417;28;24426;-46
2022/09/16 06:08:22;;;;;;;2.50;1.63;;;;;;;;;;5047805;28;24833;-49
2022/09/16 06:10:47;;;;;;;2.17;1.67;;;;;;;;;;5034689;28;25026;-46
2022/09/16 06:13:13;;;;;;;2.13;1.40;;;;;;;;;;5044550;28;24418;-48
2022/09/16 06:15:38;;;;;;;2.30;1.83;;;;;;;;;;5043686;28;24510;-46
2022/09/16 06:18:03;;;;;;;1.80;1.70;;;;;;;;;;5039540;28;24423;-47
2022/09/16 06:20:28;;;;;;;3.55;1.90;;;;;;;;;;5044910;28;24438;-47
2022/09/16 06:22:53;;;;;;;2.43;2.23;;;;;;;;;;5049193;28;24507;-46
2022/09/16 06:25:18;;;;;;;2.67;1.80;;;;;;;;;;5046833;28;24406;-47
2022/09/16 06:27:43;;;;;;;2.70;2.50;;;;;;;;;;5047829;28;24423;-46
2022/09/16 06:30:09;;;;;;;3.20;2.60;;;;;;;;;;5047594;28;24546;-47
2022/09/16 06:32:34;;;;;;;2.73;2.50;;;;;;;;;;5046415;28;24949;-47
2022/09/16 06:34:59;;;;;;;2.90;2.00;;;;;;;;;;5047714;28;24817;-47
2022/09/16 06:37:25;;;;;;;3.40;2.33;;;;;;;;;;5036153;28;24510;-47
2022/09/16 06:39:50;;;;;;;2.40;2.20;;;;;;;;;;5036386;28;25031;-48
2022/09/16 06:42:15;;;;;;;2.40;2.20;;;;;;;;;;5047842;28;24488;-47
2022/09/16 06:44:40;;;;;;;2.80;2.60;;;;;;;;;;5047699;28;24532;-47
2022/09/16 06:47:05;;;;;;;2.03;1.93;;;;;;;;;;5042454;28;24427;-47
2022/09/16 06:49:31;;;;;;;2.10;1.90;;;;;;;;;;5038138;28;24937;-47
2022/09/16 06:51:56;;;;;;;2.40;2.20;;;;;;;;;;5047299;28;24513;-47
2022/09/16 06:54:21;;;;;;;2.50;2.30;;;;;;;;;;5047153;28;24553;-47
2022/09/16 06:56:46;;;;;;;2.25;2.15;;;;;;;;;;5047699;28;24430;-47
2022/09/16 06:59:13;;;;;;;3.87;2.00;;;;;;;;;;5045708;28;24419;-46
2022/09/16 07:01:38;;;;;;;2.60;2.40;;;;;;;;;;5046828;28;24447;-46
2022/09/16 07:04:05;;;;;;;2.72;1.98;;;;;;;;;;5048258;28;24469;-47
2022/09/16 07:06:31;;;;;;;2.35;2.05;;;;;;;;;;5046670;28;24535;-47
2022/09/16 07:08:56;;;;;;;2.83;2.13;;;;;;;;;;5040758;28;24430;-48
2022/09/16 07:11:22;;;;;;;1.97;1.80;;;;;;;;;;5046635;28;24423;-48
2022/09/16 07:13:48;;;;;;;2.85;1.85;;;;;;;;;;5038743;28;24425;-47
2022/09/16 07:16:15;;;;;;;2.30;1.80;;;;;;;;;;5045394;28;24485;-48
2022/09/16 07:18:41;;;;;;;2.10;1.70;;;;;;;;;;5033274;28;24426;-47
2022/09/16 07:21:10;;;;;;;1.90;1.67;;;;;;;;;;5046619;28;25075;-47
2022/09/16 07:23:36;;;;;;;2.37;1.70;;;;;;;;;;5045906;28;24992;-46
2022/09/16 07:26:09;;;;;;;2.80;1.80;;;;;;;;;;5033069;28;24424;-47
2022/09/16 07:28:35;;;;;;;2.10;1.85;;;;;;;;;;5047316;28;24849;-48
2022/09/16 07:31:04;;;;;;;1.97;1.60;;;;;;;;;;5046858;28;24485;-47
2022/09/16 07:33:31;;;;;;;1.90;1.67;;;;;;;;;;5047177;28;24950;-48
2022/09/16 07:35:57;;;;;;;3.00;1.80;;;;;;;;;;5034493;28;24451;-47
2022/09/16 07:38:22;;;;;;;1.95;1.60;;;;;;;;;;5044635;28;24423;-48
2022/09/16 07:40:47;;;;;;;1.80;1.60;;;;;;;;;;5037442;28;24833;-48
2022/09/16 07:43:13;;;;;;;3.47;1.77;;;;;;;;;;5046124;28;24419;-47
2022/09/16 07:45:38;;;;;;;1.70;1.50;;;;;;;;;;5041112;28;24454;-47
2022/09/16 07:48:03;;;;;;;3.55;1.80;;;;;;;;;;5040894;28;24419;-48
2022/09/16 07:50:28;;;;;;;2.60;1.70;;;;;;;;;;5044845;28;24415;-47
2022/09/16 07:52:54;;;;;;;1.90;1.60;;;;;;;;;;5045838;28;24450;-47
2022/09/16 07:55:19;;;;;;;1.50;1.40;;;;;;;;;;5041513;28;24410;-47
2022/09/16 07:57:44;;;;;;;1.50;1.40;;;;;;;;;;5031890;28;24419;-47
2022/09/16 08:00:10;;;;;;;2.00;1.60;;;;;;;;;;5041277;28;24485;-47
2022/09/16 08:02:35;;;;;;;2.00;1.50;;;;;;;;;;5038639;28;24423;-48
2022/09/16 08:05:00;;;;;;;1.97;1.30;;;;;;;;;;5046929;28;24430;-48
2022/09/16 08:07:25;;;;;;;1.75;1.30;;;;;;;;;;5031996;28;24498;-48
2022/09/16 08:09:50;;;;;;;1.70;1.20;;;;;;;;;;5027069;28;24391;-47
2022/09/16 08:12:15;;;;;;;1.80;1.67;;;;;;;;;;5036160;28;24419;-47
2022/09/16 08:14:41;;;;;;;2.25;1.80;;;;;;;;;;5029603;28;24466;-47
2022/09/16 08:17:06;;;;;;;2.10;1.70;;;;;;;;;;5035706;28;24431;-47
2022/09/16 08:19:32;;;;;;;2.80;1.45;;;;;;;;;;5037578;28;25196;-48
2022/09/16 08:21:57;;;;;;;1.50;1.40;;;;;;;;;;5031413;28;24474;-48
2022/09/16 08:24:22;;;;;;;1.73;1.48;;;;;;;;;;5026496;28;24400;-47
2022/09/16 08:26:47;;;;;;;2.50;1.60;;;;;;;;;;5038820;28;24438;-49
2022/09/16 08:29:12;;;;;;;2.80;1.50;;;;;;;;;;5032036;28;24855;-48
2022/09/16 08:31:37;;;;;;;1.58;1.48;;;;;;;;;;5045540;28;25044;-48
2022/09/16 08:34:03;;;;;;;1.48;1.38;;;;;;;;;;5044588;28;24439;-48
2022/09/16 08:36:28;;;;;;;1.83;1.40;;;;;;;;;;5045105;28;24449;-48
2022/09/16 08:38:54;;;;;;;1.70;1.20;;;;;;;;;;5045657;28;24523;-48
2022/09/16 08:41:19;;;;;;;1.70;1.00;;;;;;;;;;5043173;28;24451;-47
2022/09/16 08:43:48;;;;;;;1.48;1.20;;;;;;;;;;5038607;28;24457;-47
2022/09/16 08:46:19;;;;;;;1.00;0.90;;;;;;;;;;5031911;28;24429;-47
2022/09/16 08:49:05;;;;;;;1.40;0.90;;;;;;;;;;5045464;28;24426;-48
2022/09/16 08:51:31;;;;;;;2.08;1.00;;;;;;;;;;5038717;28;24428;-47
2022/09/16 08:53:58;;;;;;;2.50;1.50;;;;;;;;;;5039970;28;25074;-48
2022/09/16 08:56:24;;;;;;;1.30;1.00;;;;;;;;;;5035070;28;24540;-47
2022/09/16 08:58:52;;;;;;;1.75;1.00;;;;;;;;;;5045232;28;24477;-47
2022/09/16 09:01:17;;;;;;;2.55;1.30;;;;;;;;;;5036863;28;24511;-48
2022/09/16 09:03:44;;;;;;;1.55;1.20;;;;;;;;;;5040521;28;24527;-48
2022/09/16 09:06:27;;;;;;;1.60;1.10;;;;;;;;;;5036866;28;24462;-48
2022/09/16 09:08:52;;;;;;;2.10;1.00;;;;;;;;;;5026317;28;25167;-47
2022/09/16 09:11:24;;;;;;;1.38;1.20;;;;;;;;;;5041160;28;24980;-48
2022/09/16 09:14:04;;;;;;;2.50;1.10;;;;;;;;;;5037517;28;24474;-47
2022/09/16 09:16:29;;;;;;;1.60;1.10;;;;;;;;;;5042557;28;24423;-47
2022/09/16 09:19:20;;;;;;;1.87;1.00;;;;;;;;;;5033251;28;24462;-48
2022/09/16 09:21:53;;;;;;;1.70;1.10;;;;;;;;;;5028598;28;25127;-48
2022/09/16 09:24:21;;;;;;;1.60;0.98;;;;;;;;;;5045637;28;24953;-46
2022/09/16 09:26:50;;;;;;;1.42;1.20;;;;;;;;;;5032023;28;24497;-47
2022/09/16 09:29:24;;;;;;;2.15;1.20;;;;;;;;;;5025979;28;24899;-53
2022/09/16 09:32:03;;;;;;;2.00;1.10;;;;;;;;;;5033262;28;24416;-47
2022/09/16 09:34:44;;;;;;;1.30;1.20;;;;;;;;;;5040422;28;24473;-48
2022/09/16 09:37:20;;;;;;;1.70;1.10;;;;;;;;;;5029555;28;24530;-48
2022/09/16 09:39:59;;;;;;;1.40;1.20;;;;;;;;;;5045782;28;24426;-48
2022/09/16 09:42:27;;;;;;;1.50;1.20;;;;;;;;;;5035626;28;24966;-48
2022/09/16 09:45:02;;;;;;;1.30;0.93;;;;;;;;;;5030184;28;24428;-47
2022/09/16 09:47:42;;;;;;;1.30;1.00;;;;;;;;;;5037984;28;24469;-47
2022/09/16 09:50:12;;;;;;;1.90;1.00;;;;;;;;;;5047682;28;24739;-48
2022/09/16 09:52:52;;;;;;;1.58;1.08;;;;;;;;;;5033106;28;24403;-47
2022/09/16 09:55:18;;;;;;;1.52;0.80;;;;;;;;;;5048320;28;24443;-47
2022/09/16 09:57:59;;;;;;;0.88;0.80;;;;;;;;;;5048034;28;24420;-47
2022/09/16 10:00:24;;;;;;;1.30;0.90;;;;;;;;;;5048229;28;25007;-47
2022/09/16 10:02:50;;;;;;;1.02;0.82;;;;;;;;;;5046652;28;24980;-47
2022/09/16 10:05:21;;;;;;;2.10;1.10;;;;;;;;;;5048648;28;24547;-47
2022/09/16 10:07:47;;;;;;;2.03;1.07;;;;;;;;;;5048132;28;24441;-47
2022/09/16 10:10:13;;;;;;;2.10;1.00;;;;;;;;;;5048083;28;24478;-46
2022/09/16 10:12:39;;;;;;;1.70;1.20;;;;;;;;;;5045816;28;24427;-46
2022/09/16 10:15:05;;;;;;;1.07;0.83;;;;;;;;;;5029685;28;24479;-47
2022/09/16 10:17:31;;;;;;;1.30;1.00;;;;;;;;;;5047373;28;24419;-48
2022/09/16 10:20:00;;;;;;;1.13;1.00;;;;;;;;;;5046155;28;24450;-48
2022/09/16 10:22:33;;;;;;;1.38;1.10;;;;;;;;;;5048159;28;24414;-47
2022/09/16 10:24:59;;;;;;;1.90;1.60;;;;;;;;;;5046917;28;24441;-47
2022/09/16 10:27:35;;;;;;;1.10;1.00;;;;;;;;;;5028816;28;24424;-47
2022/09/16 10:30:03;;;;;;;1.20;1.10;;;;;;;;;;5030420;28;24420;-47
2022/09/16 10:32:28;;;;;;;1.40;1.10;;;;;;;;;;5045115;28;24419;-47
2022/09/16 10:34:54;;;;;;;1.10;1.00;;;;;;;;;;5047578;28;24482;-47
2022/09/16 10:37:20;;;;;;;2.20;1.00;;;;;;;;;;5047774;28;24459;-47
2022/09/16 10:39:53;;;;;;;1.30;1.20;;;;;;;;;;5037641;28;24526;-46
2022/09/16 10:42:20;;;;;;;1.30;1.10;;;;;;;;;;5045783;28;24814;-46
2022/09/16 10:44:47;;;;;;;1.80;1.60;;;;;;;;;;5040277;28;24970;-47
2022/09/16 10:47:17;;;;;;;4.00;1.80;;;;;;;;;;5046548;28;24435;-47
2022/09/16 10:49:44;;;;;;;1.60;1.50;;;;;;;;;;5043121;28;24420;-48
2022/09/16 10:52:36;;;;;;;2.40;1.70;;;;;;;;;;5037642;28;24461;-47
2022/09/16 10:55:20;;;;;;;1.90;1.80;;;;;;;;;;5048061;28;24748;-47
2022/09/16 10:57:45;;;;;;;2.10;1.90;;;;;;;;;;5032805;28;24514;-47
2022/09/16 11:00:15;;;;;;;2.10;2.00;;;;;;;;;;5028002;28;24479;-47
2022/09/16 11:02:43;;;;;;;2.05;1.95;;;;;;;;;;5027643;28;24857;-47
2022/09/16 11:05:17;;;;;;;2.30;2.00;;;;;;;;;;5043414;28;25335;-49
2022/09/16 11:07:58;;;;;;;1.70;1.60;;;;;;;;;;5046477;28;25057;-46
2022/09/16 11:10:29;;;;;;;2.15;1.40;;;;;;;;;;5046688;28;24900;-46
2022/09/16 11:13:02;;;;;;;1.70;1.20;;;;;;;;;;5046918;28;24419;-47
2022/09/16 11:15:33;;;;;;;2.30;1.15;;;;;;;;;;5046127;28;24786;-48
2022/09/16 11:18:17;;;;;;;1.20;1.00;;;;;;;;;;5035817;28;24773;-47
2022/09/16 11:21:01;;;;;;;1.10;1.00;;;;;;;;;;5041343;28;24981;-47
2022/09/16 11:23:34;;;;;;;1.20;1.10;;;;;;;;;;5038918;28;24549;-47
2022/09/16 11:26:06;;;;;;;1.23;1.17;;;;;;;;;;5046940;28;24472;-48
2022/09/16 11:28:54;;;;;;;1.45;1.35;;;;;;;;;;5029208;28;24415;-47
2022/09/16 11:31:28;;;;;;;1.20;1.10;;;;;;;;;;5037740;28;24611;-46
2022/09/16 11:33:56;;;;;;;1.00;1.00;;;;;;;;;;5045655;28;24778;-47
2022/09/16 11:36:36;;;;;;;1.40;0.90;;;;;;;;;;5046641;28;24477;-48
2022/09/16 11:39:09;;;;;;;1.00;0.90;;;;;;;;;;5032886;28;24836;-48
2022/09/16 11:41:35;;;;;;;1.08;1.05;;;;;;;;;;5046263;28;24438;-48
2022/09/16 11:44:09;;;;;;;0.90;0.90;;;;;;;;;;5047682;28;24403;-47
2022/09/16 11:46:51;;;;;;;1.20;1.10;;;;;;;;;;5046102;28;25067;-47
2022/09/16 11:49:31;;;;;;;1.30;1.20;;;;;;;;;;5044358;28;24427;-47
2022/09/16 11:52:15;;;;;;;1.27;0.98;;;;;;;;;;5043638;28;25026;-47
2022/09/16 11:54:47;;;;;;;1.88;1.00;;;;;;;;;;5032532;28;24427;-47
2022/09/16 11:57:16;;;;;;;1.13;1.10;;;;;;;;;;5036311;28;24425;-48
2022/09/16 11:59:49;;;;;;;1.00;0.90;;;;;;;;;;5042814;28;24423;-47
2022/09/16 12:02:22;;;;;;;1.30;1.20;;;;;;;;;;5045834;28;24425;-48
2022/09/16 12:04:55;;;;;;;1.30;1.17;;;;;;;;;;5043949;28;24537;-48
2022/09/16 12:07:43;;;;;;;1.08;0.98;;;;;;;;;;5045928;28;24481;-47
2022/09/16 12:10:16;;;;;;;1.27;0.90;;;;;;;;;;5039193;28;24549;-48
2022/09/16 12:12:43;;;;;;;0.70;0.70;;;;;;;;;;5029779;28;24574;-47
2022/09/16 12:15:29;;;;;;;0.60;0.60;;;;;;;;;;5026583;28;25000;-46
2022/09/16 12:17:57;;;;;;;0.50;0.50;;;;;;;;;;5028583;28;24438;-47
2022/09/16 12:20:31;;;;;;;2.20;0.60;;;;;;;;;;5045307;28;24454;-46
2022/09/16 12:23:02;;;;;;;1.70;0.70;;;;;;;;;;5044085;28;24459;-47
2022/09/16 12:25:38;;;;;;;0.52;0.50;;;;;;;;;;5045577;28;24477;-48
2022/09/16 12:28:09;;;;;;;1.60;0.70;;;;;;;;;;5029871;28;25131;-48
2022/09/16 12:30:36;;;;;;;1.00;0.90;;;;;;;;;;5029733;28;24443;-48
2022/09/16 12:33:14;;;;;;;1.20;1.10;;;;;;;;;;5037410;28;24510;-47
2022/09/16 12:35:54;;;;;;;0.90;0.90;;;;;;;;;;5026551;28;24515;-48
2022/09/16 12:38:19;;;;;;;0.90;0.90;;;;;;;;;;5044390;28;24422;-46
2022/09/16 12:41:03;;;;;;;1.10;1.00;;;;;;;;;;5045624;28;24427;-47
2022/09/16 12:43:38;;;;;;;1.67;1.13;;;;;;;;;;5042540;28;24415;-48
2022/09/16 12:46:10;;;;;;;1.20;1.10;;;;;;;;;;5026194;28;24798;-47
2022/09/16 12:48:45;;;;;;;1.70;1.10;;;;;;;;;;5029311;28;24428;-47
2022/09/16 12:51:29;;;;;;;1.45;1.30;;;;;;;;;;5026903;28;24478;-46
2022/09/16 12:54:13;;;;;;;1.60;1.50;;;;;;;;;;5040885;28;24459;-47
2022/09/16 12:56:44;;;;;;;1.30;1.20;;;;;;;;;;5034257;28;25025;-46
2022/09/16 12:59:38;;;;;;;3.30;1.60;;;;;;;;;;5034043;28;24866;-46
2022/09/16 13:02:23;;;;;;;1.50;1.30;;;;;;;;;;5042563;28;24431;-47
2022/09/16 13:04:50;;;;;;;1.30;1.20;;;;;;;;;;5028125;28;24435;-46
2022/09/16 13:07:18;;;;;;;1.40;0.90;;;;;;;;;;5026673;28;24574;-49
2022/09/16 13:09:46;;;;;;;1.33;1.15;;;;;;;;;;5042447;28;24435;-46
2022/09/16 13:12:17;;;;;;;1.30;1.20;;;;;;;;;;5045236;28;24790;-47
2022/09/16 13:14:42;;;;;;;1.35;1.20;;;;;;;;;;5041804;28;25161;-47
2022/09/16 13:17:09;;;;;;;1.80;1.10;;;;;;;;;;5031127;28;24457;-48
2022/09/16 13:19:37;;;;;;;1.50;1.17;;;;;;;;;;5034780;28;24403;-47
2022/09/16 13:22:21;;;;;;;1.50;1.40;;;;;;;;;;5046014;28;25012;-48
2022/09/16 13:24:52;;;;;;;1.10;1.10;;;;;;;;;;5037970;28;24431;-47
2022/09/16 13:27:28;;;;;;;1.30;1.20;;;;;;;;;;5037657;28;24752;-48
2022/09/16 13:30:10;;;;;;;1.50;1.08;;;;;;;;;;5039275;28;24845;-48
2022/09/16 13:32:42;;;;;;;1.10;1.00;;;;;;;;;;5033678;28;24767;-48
2022/09/16 13:35:21;;;;;;;2.30;1.20;;;;;;;;;;5039123;28;24434;-47
2022/09/16 13:37:50;;;;;;;1.90;1.33;;;;;;;;;;5041964;28;24499;-47
2022/09/16 13:40:42;;;;;;;1.70;1.20;;;;;;;;;;5038405;28;24504;-47
2022/09/16 13:43:07;;;;;;;1.20;1.00;;;;;;;;;;5050600;28;24427;-47
2022/09/16 13:45:42;;;;;;;1.40;1.30;;;;;;;;;;5048987;28;24414;-47
2022/09/16 13:48:16;;;;;;;1.20;1.10;;;;;;;;;;5044321;28;24411;-47
2022/09/16 13:50:42;;;;;;;1.40;0.90;;;;;;;;;;5052726;28;24411;-47
2022/09/16 13:53:09;;;;;;;0.80;0.80;;;;;;;;;;5037218;28;24791;-47
2022/09/16 13:55:35;;;;;;;2.20;1.20;;;;;;;;;;5037014;28;24495;-47
2022/09/16 13:58:03;;;;;;;2.50;1.10;;;;;;;;;;5040827;28;24419;-47
2022/09/16 14:00:34;;;;;;;1.10;1.00;;;;;;;;;;5039900;28;24411;-47
2022/09/16 14:03:08;;;;;;;1.10;1.00;;;;;;;;;;5044814;28;24430;-47
2022/09/16 14:05:42;;;;;;;2.05;0.90;;;;;;;;;;5035045;28;24399;-47
2022/09/16 14:08:10;;;;;;;1.00;0.90;;;;;;;;;;5041982;28;25052;-47
2022/09/16 14:10:54;;;;;;;0.88;0.80;;;;;;;;;;5048976;28;25059;-47
2022/09/16 14:13:21;;;;;;;1.60;1.20;;;;;;;;;;5033407;28;24416;-47
2022/09/16 14:15:49;;;;;;;1.73;1.00;;;;;;;;;;5030466;28;24838;-46
2022/09/16 14:18:16;;;;;;;1.10;1.00;;;;;;;;;;5032018;28;24435;-47
2022/09/16 14:20:58;;;;;;;1.30;0.80;;;;;;;;;;5044681;28;24415;-47
2022/09/16 14:23:24;;;;;;;1.30;1.20;;;;;;;;;;5048555;28;24388;-47
2022/09/16 14:25:49;;;;;;;1.20;1.10;;;;;;;;;;5041518;28;24404;-47
2022/09/16 14:28:15;;;;;;;1.70;1.20;;;;;;;;;;5029057;28;24395;-47
2022/09/16 14:30:44;;;;;;;1.20;1.10;;;;;;;;;;5028657;28;24449;-47
2022/09/16 14:33:10;;;;;;;2.10;1.13;;;;;;;;;;5027904;28;24485;-47
2022/09/16 14:35:35;;;;;;;0.97;0.90;;;;;;;;;;5029208;28;25179;-48
2022/09/16 14:38:02;;;;;;;1.80;0.90;;;;;;;;;;5047555;28;24477;-47
2022/09/16 14:40:27;;;;;;;1.42;0.90;;;;;;;;;;5048387;28;24398;-48
2022/09/16 14:42:56;;;;;;;1.45;1.10;;;;;;;;;;5047872;28;24797;-47
2022/09/16 14:45:21;;;;;;;0.80;0.80;;;;;;;;;;5041511;28;24799;-47
2022/09/16 14:47:47;;;;;;;0.80;0.80;;;;;;;;;;5028152;28;24481;-46
2022/09/16 14:50:15;;;;;;;0.70;0.70;;;;;;;;;;5033204;28;24801;-47
2022/09/16 14:52:40;;;;;;;0.70;0.70;;;;;;;;;;5048321;28;24487;-47
2022/09/16 14:55:15;;;;;;;0.80;0.80;;;;;;;;;;5047587;28;24518;-47